sensor_id;sensor_type;location;lat;lon;timestamp;P1;durP1;ratioP1;P2;durP2;ratioP2
27796;SDS011;15177;50.844;4.412;2023-05-07T00:01:46;9.05;;;4.32;;
27796;SDS011;15177;50.844;4.412;2023-05-07T00:04:12;8.57;;;4.32;;
27796;SDS011;15177;50.844;4.412;2023-05-07T00:06:38;8.95;;;3.63;;
27796;SDS011;15177;50.844;4.412;2023-05-07T00:09:04;8.80;;;4.20;;
27796;SDS011;15177;50.844;4.412;2023-05-07T00:11:32;9.55;;;4.57;;
27796;SDS011;15177;50.844;4.412;2023-05-07T00:13:58;8.27;;;3.60;;
27796;SDS011;15177;50.844;4.412;2023-05-07T00:16:24;5.45;;;3.92;;
27796;SDS011;15177;50.844;4.412;2023-05-07T00:18:50;9.90;;;4.18;;
27796;SDS011;15177;50.844;4.412;2023-05-07T00:21:16;11.20;;;4.22;;
27796;SDS011;15177;50.844;4.412;2023-05-07T00:23:41;10.18;;;3.97;;
27796;SDS011;15177;50.844;4.412;2023-05-07T00:26:07;7.10;;;3.30;;
27796;SDS011;15177;50.844;4.412;2023-05-07T00:28:33;13.25;;;4.38;;
27796;SDS011;15177;50.844;4.412;2023-05-07T00:30:58;12.20;;;4.47;;
27796;SDS011;15177;50.844;4.412;2023-05-07T00:33:24;12.27;;;4.05;;
27796;SDS011;15177;50.844;4.412;2023-05-07T00:35:51;11.40;;;4.55;;
27796;SDS011;15177;50.844;4.412;2023-05-07T00:38:17;12.52;;;5.07;;
27796;SDS011;15177;50.844;4.412;2023-05-07T00:40:42;8.35;;;3.88;;
27796;SDS011;15177;50.844;4.412;2023-05-07T00:43:08;8.48;;;4.07;;
27796;SDS011;15177;50.844;4.412;2023-05-07T00:45:34;10.13;;;4.00;;
27796;SDS011;15177;50.844;4.412;2023-05-07T00:48:01;15.30;;;3.95;;
27796;SDS011;15177;50.844;4.412;2023-05-07T00:50:28;6.60;;;3.40;;
27796;SDS011;15177;50.844;4.412;2023-05-07T00:52:55;11.23;;;4.13;;
27796;SDS011;15177;50.844;4.412;2023-05-07T00:55:21;7.30;;;3.40;;
27796;SDS011;15177;50.844;4.412;2023-05-07T00:57:48;11.18;;;3.92;;
27796;SDS011;15177;50.844;4.412;2023-05-07T01:00:15;7.63;;;3.83;;
27796;SDS011;15177;50.844;4.412;2023-05-07T01:02:41;13.35;;;4.22;;
27796;SDS011;15177;50.844;4.412;2023-05-07T01:05:09;11.85;;;3.88;;
27796;SDS011;15177;50.844;4.412;2023-05-07T01:07:39;6.82;;;3.95;;
27796;SDS011;15177;50.844;4.412;2023-05-07T01:10:06;14.25;;;3.47;;
27796;SDS011;15177;50.844;4.412;2023-05-07T01:12:35;12.80;;;4.28;;
27796;SDS011;15177;50.844;4.412;2023-05-07T01:15:02;7.47;;;3.40;;
27796;SDS011;15177;50.844;4.412;2023-05-07T01:17:28;9.68;;;3.95;;
27796;SDS011;15177;50.844;4.412;2023-05-07T01:19:54;9.02;;;4.15;;
27796;SDS011;15177;50.844;4.412;2023-05-07T01:22:30;7.43;;;3.10;;
27796;SDS011;15177;50.844;4.412;2023-05-07T01:24:57;7.82;;;3.72;;
27796;SDS011;15177;50.844;4.412;2023-05-07T01:27:24;11.32;;;3.88;;
27796;SDS011;15177;50.844;4.412;2023-05-07T01:29:50;9.15;;;4.05;;
27796;SDS011;15177;50.844;4.412;2023-05-07T01:32:16;15.85;;;4.00;;
27796;SDS011;15177;50.844;4.412;2023-05-07T01:34:50;13.13;;;4.00;;
27796;SDS011;15177;50.844;4.412;2023-05-07T01:37:17;10.88;;;3.55;;
27796;SDS011;15177;50.844;4.412;2023-05-07T01:39:43;11.65;;;3.35;;
27796;SDS011;15177;50.844;4.412;2023-05-07T01:42:09;7.45;;;3.35;;
27796;SDS011;15177;50.844;4.412;2023-05-07T01:44:35;10.40;;;4.07;;
27796;SDS011;15177;50.844;4.412;2023-05-07T01:47:02;11.25;;;3.75;;
27796;SDS011;15177;50.844;4.412;2023-05-07T01:49:29;11.00;;;4.93;;
27796;SDS011;15177;50.844;4.412;2023-05-07T01:51:55;16.42;;;4.20;;
27796;SDS011;15177;50.844;4.412;2023-05-07T01:54:25;11.07;;;4.30;;
27796;SDS011;15177;50.844;4.412;2023-05-07T01:56:58;12.05;;;3.85;;
27796;SDS011;15177;50.844;4.412;2023-05-07T01:59:24;8.57;;;3.80;;
27796;SDS011;15177;50.844;4.412;2023-05-07T02:01:50;13.15;;;4.72;;
27796;SDS011;15177;50.844;4.412;2023-05-07T02:04:16;8.38;;;3.95;;
27796;SDS011;15177;50.844;4.412;2023-05-07T02:06:42;12.10;;;4.32;;
27796;SDS011;15177;50.844;4.412;2023-05-07T02:09:08;17.50;;;3.92;;
27796;SDS011;15177;50.844;4.412;2023-05-07T02:11:38;17.98;;;4.97;;
27796;SDS011;15177;50.844;4.412;2023-05-07T02:14:03;11.30;;;4.40;;
27796;SDS011;15177;50.844;4.412;2023-05-07T02:16:30;8.68;;;4.20;;
27796;SDS011;15177;50.844;4.412;2023-05-07T02:18:56;14.20;;;4.30;;
27796;SDS011;15177;50.844;4.412;2023-05-07T02:21:24;16.15;;;5.18;;
27796;SDS011;15177;50.844;4.412;2023-05-07T02:23:50;14.13;;;5.07;;
27796;SDS011;15177;50.844;4.412;2023-05-07T02:26:15;11.68;;;4.35;;
27796;SDS011;15177;50.844;4.412;2023-05-07T02:28:41;14.45;;;4.40;;
27796;SDS011;15177;50.844;4.412;2023-05-07T02:31:07;14.43;;;4.03;;
27796;SDS011;15177;50.844;4.412;2023-05-07T02:33:32;11.95;;;4.40;;
27796;SDS011;15177;50.844;4.412;2023-05-07T02:36:05;8.57;;;4.22;;
27796;SDS011;15177;50.844;4.412;2023-05-07T02:38:32;13.98;;;4.10;;
27796;SDS011;15177;50.844;4.412;2023-05-07T02:40:57;17.50;;;4.25;;
27796;SDS011;15177;50.844;4.412;2023-05-07T02:43:23;9.85;;;4.30;;
27796;SDS011;15177;50.844;4.412;2023-05-07T02:45:49;11.02;;;4.13;;
27796;SDS011;15177;50.844;4.412;2023-05-07T02:48:14;12.20;;;4.13;;
27796;SDS011;15177;50.844;4.412;2023-05-07T02:50:40;10.50;;;4.30;;
27796;SDS011;15177;50.844;4.412;2023-05-07T02:53:07;15.63;;;4.85;;
27796;SDS011;15177;50.844;4.412;2023-05-07T02:55:33;9.00;;;4.10;;
27796;SDS011;15177;50.844;4.412;2023-05-07T02:57:58;12.30;;;4.35;;
27796;SDS011;15177;50.844;4.412;2023-05-07T03:00:24;10.50;;;4.70;;
27796;SDS011;15177;50.844;4.412;2023-05-07T03:02:50;11.70;;;4.60;;
27796;SDS011;15177;50.844;4.412;2023-05-07T03:05:15;15.10;;;4.88;;
27796;SDS011;15177;50.844;4.412;2023-05-07T03:07:41;12.68;;;4.63;;
27796;SDS011;15177;50.844;4.412;2023-05-07T03:10:11;14.98;;;4.25;;
27796;SDS011;15177;50.844;4.412;2023-05-07T03:12:36;16.30;;;4.75;;
27796;SDS011;15177;50.844;4.412;2023-05-07T03:15:02;13.48;;;5.10;;
27796;SDS011;15177;50.844;4.412;2023-05-07T03:17:28;14.27;;;5.40;;
27796;SDS011;15177;50.844;4.412;2023-05-07T03:19:54;12.52;;;4.85;;
27796;SDS011;15177;50.844;4.412;2023-05-07T03:22:19;15.25;;;4.68;;
27796;SDS011;15177;50.844;4.412;2023-05-07T03:24:45;15.73;;;6.13;;
27796;SDS011;15177;50.844;4.412;2023-05-07T03:27:11;11.80;;;4.80;;
27796;SDS011;15177;50.844;4.412;2023-05-07T03:29:36;16.48;;;4.57;;
27796;SDS011;15177;50.844;4.412;2023-05-07T03:32:02;15.20;;;4.75;;
27796;SDS011;15177;50.844;4.412;2023-05-07T03:34:28;11.50;;;4.38;;
27796;SDS011;15177;50.844;4.412;2023-05-07T03:36:54;13.50;;;4.95;;
27796;SDS011;15177;50.844;4.412;2023-05-07T03:39:21;13.95;;;4.63;;
27796;SDS011;15177;50.844;4.412;2023-05-07T03:41:46;12.77;;;4.50;;
27796;SDS011;15177;50.844;4.412;2023-05-07T03:44:14;10.80;;;4.45;;
27796;SDS011;15177;50.844;4.412;2023-05-07T03:46:39;14.93;;;4.88;;
27796;SDS011;15177;50.844;4.412;2023-05-07T03:49:05;17.83;;;5.03;;
27796;SDS011;15177;50.844;4.412;2023-05-07T03:51:30;12.00;;;4.28;;
27796;SDS011;15177;50.844;4.412;2023-05-07T03:53:56;11.50;;;4.70;;
27796;SDS011;15177;50.844;4.412;2023-05-07T03:56:23;13.85;;;4.53;;
27796;SDS011;15177;50.844;4.412;2023-05-07T03:58:51;15.10;;;4.05;;
27796;SDS011;15177;50.844;4.412;2023-05-07T04:01:17;10.63;;;4.43;;
27796;SDS011;15177;50.844;4.412;2023-05-07T04:03:43;13.50;;;4.75;;
27796;SDS011;15177;50.844;4.412;2023-05-07T04:06:08;11.18;;;4.93;;
27796;SDS011;15177;50.844;4.412;2023-05-07T04:08:35;13.48;;;4.50;;
27796;SDS011;15177;50.844;4.412;2023-05-07T04:11:02;12.35;;;4.60;;
27796;SDS011;15177;50.844;4.412;2023-05-07T04:13:29;12.60;;;4.22;;
27796;SDS011;15177;50.844;4.412;2023-05-07T04:15:56;12.35;;;4.22;;
27796;SDS011;15177;50.844;4.412;2023-05-07T04:18:22;10.25;;;4.28;;
27796;SDS011;15177;50.844;4.412;2023-05-07T04:20:48;12.15;;;4.45;;
27796;SDS011;15177;50.844;4.412;2023-05-07T04:23:16;13.73;;;4.47;;
27796;SDS011;15177;50.844;4.412;2023-05-07T04:25:42;10.88;;;4.05;;
27796;SDS011;15177;50.844;4.412;2023-05-07T04:28:07;11.00;;;4.00;;
27796;SDS011;15177;50.844;4.412;2023-05-07T04:30:33;18.17;;;4.75;;
27796;SDS011;15177;50.844;4.412;2023-05-07T04:32:59;11.20;;;4.32;;
27796;SDS011;15177;50.844;4.412;2023-05-07T04:35:25;13.20;;;4.45;;
27796;SDS011;15177;50.844;4.412;2023-05-07T04:37:50;17.75;;;4.85;;
27796;SDS011;15177;50.844;4.412;2023-05-07T04:40:16;10.35;;;3.67;;
27796;SDS011;15177;50.844;4.412;2023-05-07T04:42:42;10.10;;;4.30;;
27796;SDS011;15177;50.844;4.412;2023-05-07T04:45:07;16.23;;;3.97;;
27796;SDS011;15177;50.844;4.412;2023-05-07T04:47:35;11.15;;;3.90;;
27796;SDS011;15177;50.844;4.412;2023-05-07T04:50:01;13.95;;;4.30;;
27796;SDS011;15177;50.844;4.412;2023-05-07T04:52:27;13.18;;;4.28;;
27796;SDS011;15177;50.844;4.412;2023-05-07T04:54:52;12.05;;;4.10;;
27796;SDS011;15177;50.844;4.412;2023-05-07T04:57:18;7.47;;;3.75;;
27796;SDS011;15177;50.844;4.412;2023-05-07T04:59:44;16.42;;;4.30;;
27796;SDS011;15177;50.844;4.412;2023-05-07T05:02:10;12.18;;;3.97;;
27796;SDS011;15177;50.844;4.412;2023-05-07T05:04:37;6.85;;;3.20;;
27796;SDS011;15177;50.844;4.412;2023-05-07T05:07:04;5.53;;;3.40;;
27796;SDS011;15177;50.844;4.412;2023-05-07T05:09:30;11.48;;;3.80;;
27796;SDS011;15177;50.844;4.412;2023-05-07T05:11:55;8.05;;;3.40;;
27796;SDS011;15177;50.844;4.412;2023-05-07T05:14:21;8.95;;;4.55;;
27796;SDS011;15177;50.844;4.412;2023-05-07T05:16:47;10.93;;;3.50;;
27796;SDS011;15177;50.844;4.412;2023-05-07T05:19:12;11.55;;;3.95;;
27796;SDS011;15177;50.844;4.412;2023-05-07T05:21:38;9.70;;;3.28;;
27796;SDS011;15177;50.844;4.412;2023-05-07T05:24:04;13.20;;;3.85;;
27796;SDS011;15177;50.844;4.412;2023-05-07T05:26:31;9.40;;;3.35;;
27796;SDS011;15177;50.844;4.412;2023-05-07T05:28:56;12.48;;;3.90;;
27796;SDS011;15177;50.844;4.412;2023-05-07T05:31:22;11.23;;;4.07;;
27796;SDS011;15177;50.844;4.412;2023-05-07T05:33:48;12.10;;;3.42;;
27796;SDS011;15177;50.844;4.412;2023-05-07T05:36:14;7.38;;;4.22;;
27796;SDS011;15177;50.844;4.412;2023-05-07T05:38:40;11.27;;;3.58;;
27796;SDS011;15177;50.844;4.412;2023-05-07T05:41:05;7.40;;;3.47;;
27796;SDS011;15177;50.844;4.412;2023-05-07T05:43:32;11.93;;;3.58;;
27796;SDS011;15177;50.844;4.412;2023-05-07T05:45:58;7.82;;;3.47;;
27796;SDS011;15177;50.844;4.412;2023-05-07T05:48:23;10.20;;;3.65;;
27796;SDS011;15177;50.844;4.412;2023-05-07T05:50:49;10.38;;;3.80;;
27796;SDS011;15177;50.844;4.412;2023-05-07T05:53:15;14.18;;;4.30;;
27796;SDS011;15177;50.844;4.412;2023-05-07T05:55:41;11.68;;;3.88;;
27796;SDS011;15177;50.844;4.412;2023-05-07T05:58:07;9.70;;;3.42;;
27796;SDS011;15177;50.844;4.412;2023-05-07T06:00:33;8.40;;;3.72;;
27796;SDS011;15177;50.844;4.412;2023-05-07T06:02:59;10.10;;;3.92;;
27796;SDS011;15177;50.844;4.412;2023-05-07T06:05:25;10.18;;;3.63;;
27796;SDS011;15177;50.844;4.412;2023-05-07T06:07:50;12.05;;;3.33;;
27796;SDS011;15177;50.844;4.412;2023-05-07T06:10:16;13.73;;;4.00;;
27796;SDS011;15177;50.844;4.412;2023-05-07T06:12:41;8.95;;;3.40;;
27796;SDS011;15177;50.844;4.412;2023-05-07T06:15:07;14.82;;;4.63;;
27796;SDS011;15177;50.844;4.412;2023-05-07T06:17:35;14.90;;;4.68;;
27796;SDS011;15177;50.844;4.412;2023-05-07T06:20:00;10.68;;;4.57;;
27796;SDS011;15177;50.844;4.412;2023-05-07T06:22:26;15.00;;;5.15;;
27796;SDS011;15177;50.844;4.412;2023-05-07T06:24:52;19.10;;;5.07;;
27796;SDS011;15177;50.844;4.412;2023-05-07T06:27:17;12.82;;;4.05;;
27796;SDS011;15177;50.844;4.412;2023-05-07T06:29:43;13.90;;;4.40;;
27796;SDS011;15177;50.844;4.412;2023-05-07T06:32:09;13.98;;;4.57;;
27796;SDS011;15177;50.844;4.412;2023-05-07T06:34:38;14.60;;;4.05;;
27796;SDS011;15177;50.844;4.412;2023-05-07T06:37:04;9.43;;;4.25;;
27796;SDS011;15177;50.844;4.412;2023-05-07T06:39:30;12.70;;;4.13;;
27796;SDS011;15177;50.844;4.412;2023-05-07T06:41:56;8.93;;;4.22;;
27796;SDS011;15177;50.844;4.412;2023-05-07T06:44:23;8.82;;;4.45;;
27796;SDS011;15177;50.844;4.412;2023-05-07T06:46:49;16.23;;;4.43;;
27796;SDS011;15177;50.844;4.412;2023-05-07T06:49:16;14.18;;;4.05;;
27796;SDS011;15177;50.844;4.412;2023-05-07T06:51:42;8.50;;;3.97;;
27796;SDS011;15177;50.844;4.412;2023-05-07T06:54:07;12.80;;;4.38;;
27796;SDS011;15177;50.844;4.412;2023-05-07T06:56:33;9.77;;;4.65;;
27796;SDS011;15177;50.844;4.412;2023-05-07T06:59:01;12.20;;;4.15;;
27796;SDS011;15177;50.844;4.412;2023-05-07T07:01:27;9.82;;;4.38;;
27796;SDS011;15177;50.844;4.412;2023-05-07T07:03:53;10.18;;;4.03;;
27796;SDS011;15177;50.844;4.412;2023-05-07T07:06:20;10.02;;;3.92;;
27796;SDS011;15177;50.844;4.412;2023-05-07T07:08:45;11.40;;;4.63;;
27796;SDS011;15177;50.844;4.412;2023-05-07T07:11:12;10.73;;;4.50;;
27796;SDS011;15177;50.844;4.412;2023-05-07T07:13:38;10.48;;;4.90;;
27796;SDS011;15177;50.844;4.412;2023-05-07T07:16:05;11.05;;;4.18;;
27796;SDS011;15177;50.844;4.412;2023-05-07T07:18:30;9.50;;;4.10;;
27796;SDS011;15177;50.844;4.412;2023-05-07T07:20:56;15.93;;;4.63;;
27796;SDS011;15177;50.844;4.412;2023-05-07T07:23:22;10.35;;;3.97;;
27796;SDS011;15177;50.844;4.412;2023-05-07T07:25:47;14.13;;;4.22;;
27796;SDS011;15177;50.844;4.412;2023-05-07T07:28:14;9.73;;;4.35;;
27796;SDS011;15177;50.844;4.412;2023-05-07T07:30:40;11.18;;;4.50;;
27796;SDS011;15177;50.844;4.412;2023-05-07T07:33:06;10.93;;;4.70;;
27796;SDS011;15177;50.844;4.412;2023-05-07T07:35:31;9.07;;;4.28;;
27796;SDS011;15177;50.844;4.412;2023-05-07T07:37:57;7.10;;;3.58;;
27796;SDS011;15177;50.844;4.412;2023-05-07T07:40:23;11.23;;;4.07;;
27796;SDS011;15177;50.844;4.412;2023-05-07T07:42:51;15.70;;;4.50;;
27796;SDS011;15177;50.844;4.412;2023-05-07T07:45:17;8.80;;;4.25;;
27796;SDS011;15177;50.844;4.412;2023-05-07T07:47:43;9.63;;;4.80;;
27796;SDS011;15177;50.844;4.412;2023-05-07T07:50:09;7.75;;;4.60;;
27796;SDS011;15177;50.844;4.412;2023-05-07T07:52:35;15.00;;;4.68;;
27796;SDS011;15177;50.844;4.412;2023-05-07T07:55:00;14.48;;;4.78;;
27796;SDS011;15177;50.844;4.412;2023-05-07T07:57:26;10.35;;;4.45;;
27796;SDS011;15177;50.844;4.412;2023-05-07T07:59:52;12.07;;;5.10;;
27796;SDS011;15177;50.844;4.412;2023-05-07T08:02:18;6.28;;;4.00;;
27796;SDS011;15177;50.844;4.412;2023-05-07T08:04:43;11.05;;;4.10;;
27796;SDS011;15177;50.844;4.412;2023-05-07T08:07:09;8.10;;;4.13;;
27796;SDS011;15177;50.844;4.412;2023-05-07T08:09:36;11.23;;;4.78;;
27796;SDS011;15177;50.844;4.412;2023-05-07T08:12:02;8.77;;;4.38;;
27796;SDS011;15177;50.844;4.412;2023-05-07T08:14:30;13.30;;;4.30;;
27796;SDS011;15177;50.844;4.412;2023-05-07T08:16:56;11.88;;;4.43;;
27796;SDS011;15177;50.844;4.412;2023-05-07T08:19:21;7.32;;;4.28;;
27796;SDS011;15177;50.844;4.412;2023-05-07T08:21:47;8.60;;;4.20;;
27796;SDS011;15177;50.844;4.412;2023-05-07T08:24:14;11.23;;;5.63;;
27796;SDS011;15177;50.844;4.412;2023-05-07T08:26:40;12.05;;;4.85;;
27796;SDS011;15177;50.844;4.412;2023-05-07T08:29:06;10.68;;;4.68;;
27796;SDS011;15177;50.844;4.412;2023-05-07T08:31:31;10.00;;;4.57;;
27796;SDS011;15177;50.844;4.412;2023-05-07T08:33:57;7.53;;;4.22;;
27796;SDS011;15177;50.844;4.412;2023-05-07T08:36:25;12.88;;;4.78;;
27796;SDS011;15177;50.844;4.412;2023-05-07T08:38:51;10.13;;;4.07;;
27796;SDS011;15177;50.844;4.412;2023-05-07T08:41:17;10.70;;;4.18;;
27796;SDS011;15177;50.844;4.412;2023-05-07T08:43:45;10.07;;;4.63;;
27796;SDS011;15177;50.844;4.412;2023-05-07T08:46:21;11.45;;;5.13;;
27796;SDS011;15177;50.844;4.412;2023-05-07T08:48:48;11.85;;;5.05;;
27796;SDS011;15177;50.844;4.412;2023-05-07T08:51:16;9.55;;;5.05;;
27796;SDS011;15177;50.844;4.412;2023-05-07T08:53:46;7.50;;;5.20;;
27796;SDS011;15177;50.844;4.412;2023-05-07T08:56:15;8.63;;;4.32;;
27796;SDS011;15177;50.844;4.412;2023-05-07T08:58:42;9.10;;;4.68;;
27796;SDS011;15177;50.844;4.412;2023-05-07T09:01:15;11.98;;;5.60;;
27796;SDS011;15177;50.844;4.412;2023-05-07T09:03:41;6.57;;;4.90;;
27796;SDS011;15177;50.844;4.412;2023-05-07T09:06:10;8.35;;;4.55;;
27796;SDS011;15177;50.844;4.412;2023-05-07T09:08:36;7.60;;;4.55;;
27796;SDS011;15177;50.844;4.412;2023-05-07T09:11:02;7.30;;;4.57;;
27796;SDS011;15177;50.844;4.412;2023-05-07T09:13:28;9.32;;;4.22;;
27796;SDS011;15177;50.844;4.412;2023-05-07T09:15:54;8.45;;;4.60;;
27796;SDS011;15177;50.844;4.412;2023-05-07T09:18:20;11.30;;;5.43;;
27796;SDS011;15177;50.844;4.412;2023-05-07T09:20:45;9.68;;;4.70;;
27796;SDS011;15177;50.844;4.412;2023-05-07T09:23:11;8.60;;;4.82;;
27796;SDS011;15177;50.844;4.412;2023-05-07T09:25:37;9.70;;;4.55;;
27796;SDS011;15177;50.844;4.412;2023-05-07T09:28:04;9.18;;;4.85;;
27796;SDS011;15177;50.844;4.412;2023-05-07T09:30:33;7.78;;;4.65;;
27796;SDS011;15177;50.844;4.412;2023-05-07T09:32:59;12.13;;;5.63;;
27796;SDS011;15177;50.844;4.412;2023-05-07T09:35:26;10.05;;;4.90;;
27796;SDS011;15177;50.844;4.412;2023-05-07T09:37:53;9.65;;;4.70;;
27796;SDS011;15177;50.844;4.412;2023-05-07T09:40:20;12.77;;;4.20;;
27796;SDS011;15177;50.844;4.412;2023-05-07T09:42:47;8.00;;;3.70;;
27796;SDS011;15177;50.844;4.412;2023-05-07T09:45:14;9.27;;;3.55;;
27796;SDS011;15177;50.844;4.412;2023-05-07T09:47:40;6.28;;;3.40;;
27796;SDS011;15177;50.844;4.412;2023-05-07T09:50:11;10.32;;;3.88;;
27796;SDS011;15177;50.844;4.412;2023-05-07T09:52:40;7.53;;;3.83;;
27796;SDS011;15177;50.844;4.412;2023-05-07T09:55:10;6.97;;;4.13;;
27796;SDS011;15177;50.844;4.412;2023-05-07T09:57:38;11.65;;;4.47;;
27796;SDS011;15177;50.844;4.412;2023-05-07T10:00:05;8.65;;;3.10;;
27796;SDS011;15177;50.844;4.412;2023-05-07T10:02:33;8.75;;;3.70;;
27796;SDS011;15177;50.844;4.412;2023-05-07T10:05:00;9.38;;;4.00;;
27796;SDS011;15177;50.844;4.412;2023-05-07T10:07:26;5.70;;;3.47;;
27796;SDS011;15177;50.844;4.412;2023-05-07T10:09:53;10.75;;;2.97;;
27796;SDS011;15177;50.844;4.412;2023-05-07T10:12:22;4.80;;;2.50;;
27796;SDS011;15177;50.844;4.412;2023-05-07T10:14:48;6.15;;;2.50;;
27796;SDS011;15177;50.844;4.412;2023-05-07T10:17:17;6.60;;;3.17;;
27796;SDS011;15177;50.844;4.412;2023-05-07T10:19:44;9.20;;;3.50;;
27796;SDS011;15177;50.844;4.412;2023-05-07T10:22:10;6.53;;;3.10;;
27796;SDS011;15177;50.844;4.412;2023-05-07T10:24:41;6.93;;;3.03;;
27796;SDS011;15177;50.844;4.412;2023-05-07T10:27:10;8.50;;;3.58;;
27796;SDS011;15177;50.844;4.412;2023-05-07T10:30:46;13.65;;;3.78;;
27796;SDS011;15177;50.844;4.412;2023-05-07T10:32:48;7.40;;;3.90;;
27796;SDS011;15177;50.844;4.412;2023-05-07T10:35:26;6.32;;;3.50;;
27796;SDS011;15177;50.844;4.412;2023-05-07T10:37:56;6.90;;;3.63;;
27796;SDS011;15177;50.844;4.412;2023-05-07T10:40:22;8.18;;;3.03;;
27796;SDS011;15177;50.844;4.412;2023-05-07T10:42:55;9.82;;;3.28;;
27796;SDS011;15177;50.844;4.412;2023-05-07T10:45:25;8.60;;;3.25;;
27796;SDS011;15177;50.844;4.412;2023-05-07T10:50:40;7.32;;;3.28;;
27796;SDS011;15177;50.844;4.412;2023-05-07T10:55:51;6.55;;;2.72;;
27796;SDS011;15177;50.844;4.412;2023-05-07T10:58:37;12.38;;;3.15;;
27796;SDS011;15177;50.844;4.412;2023-05-07T11:01:03;5.85;;;2.90;;
27796;SDS011;15177;50.844;4.412;2023-05-07T11:03:29;9.10;;;3.63;;
27796;SDS011;15177;50.844;4.412;2023-05-07T11:06:14;6.50;;;3.60;;
27796;SDS011;15177;50.844;4.412;2023-05-07T11:08:56;8.50;;;3.67;;
27796;SDS011;15177;50.844;4.412;2023-05-07T11:14:09;7.18;;;3.10;;
27796;SDS011;15177;50.844;4.412;2023-05-07T11:16:35;7.47;;;3.17;;
27796;SDS011;15177;50.844;4.412;2023-05-07T11:19:03;5.53;;;3.10;;
27796;SDS011;15177;50.844;4.412;2023-05-07T11:24:01;4.20;;;2.70;;
27796;SDS011;15177;50.844;4.412;2023-05-07T11:26:30;3.15;;;2.65;;
27796;SDS011;15177;50.844;4.412;2023-05-07T11:29:09;6.38;;;2.90;;
27796;SDS011;15177;50.844;4.412;2023-05-07T11:31:36;4.65;;;2.45;;
27796;SDS011;15177;50.844;4.412;2023-05-07T11:34:03;4.32;;;2.60;;
27796;SDS011;15177;50.844;4.412;2023-05-07T11:36:30;5.50;;;2.40;;
27796;SDS011;15177;50.844;4.412;2023-05-07T11:38:57;5.50;;;2.22;;
27796;SDS011;15177;50.844;4.412;2023-05-07T11:41:32;3.22;;;2.00;;
27796;SDS011;15177;50.844;4.412;2023-05-07T11:44:02;4.65;;;2.15;;
27796;SDS011;15177;50.844;4.412;2023-05-07T11:46:28;3.70;;;1.63;;
27796;SDS011;15177;50.844;4.412;2023-05-07T11:48:54;4.78;;;1.73;;
27796;SDS011;15177;50.844;4.412;2023-05-07T11:51:22;3.42;;;2.22;;
27796;SDS011;15177;50.844;4.412;2023-05-07T11:53:49;3.08;;;1.83;;
27796;SDS011;15177;50.844;4.412;2023-05-07T11:56:16;2.08;;;1.73;;
27796;SDS011;15177;50.844;4.412;2023-05-07T11:58:43;3.85;;;1.55;;
27796;SDS011;15177;50.844;4.412;2023-05-07T12:01:11;3.63;;;2.08;;
27796;SDS011;15177;50.844;4.412;2023-05-07T12:03:41;2.58;;;1.60;;
27796;SDS011;15177;50.844;4.412;2023-05-07T12:06:08;3.55;;;2.05;;
27796;SDS011;15177;50.844;4.412;2023-05-07T12:08:36;5.50;;;1.90;;
27796;SDS011;15177;50.844;4.412;2023-05-07T12:11:03;3.65;;;1.80;;
27796;SDS011;15177;50.844;4.412;2023-05-07T12:13:31;4.03;;;1.67;;
27796;SDS011;15177;50.844;4.412;2023-05-07T12:15:57;5.50;;;1.80;;
27796;SDS011;15177;50.844;4.412;2023-05-07T12:18:23;2.75;;;1.58;;
27796;SDS011;15177;50.844;4.412;2023-05-07T12:20:49;3.20;;;1.70;;
27796;SDS011;15177;50.844;4.412;2023-05-07T12:23:16;3.58;;;1.98;;
27796;SDS011;15177;50.844;4.412;2023-05-07T12:25:42;3.30;;;1.95;;
27796;SDS011;15177;50.844;4.412;2023-05-07T12:28:17;6.07;;;1.98;;
27796;SDS011;15177;50.844;4.412;2023-05-07T12:30:44;4.80;;;2.10;;
27796;SDS011;15177;50.844;4.412;2023-05-07T12:33:12;4.70;;;1.88;;
27796;SDS011;15177;50.844;4.412;2023-05-07T12:35:41;4.47;;;1.83;;
27796;SDS011;15177;50.844;4.412;2023-05-07T12:38:08;4.40;;;1.80;;
27796;SDS011;15177;50.844;4.412;2023-05-07T12:43:19;1.98;;;1.27;;
27796;SDS011;15177;50.844;4.412;2023-05-07T12:45:55;2.95;;;1.55;;
27796;SDS011;15177;50.844;4.412;2023-05-07T12:48:22;2.78;;;1.85;;
27796;SDS011;15177;50.844;4.412;2023-05-07T12:50:51;3.47;;;1.90;;
27796;SDS011;15177;50.844;4.412;2023-05-07T12:53:25;4.65;;;2.30;;
27796;SDS011;15177;50.844;4.412;2023-05-07T12:55:52;3.17;;;2.33;;
27796;SDS011;15177;50.844;4.412;2023-05-07T12:58:24;8.00;;;2.58;;
27796;SDS011;15177;50.844;4.412;2023-05-07T13:00:58;4.45;;;3.20;;
27796;SDS011;15177;50.844;4.412;2023-05-07T13:06:02;7.03;;;3.83;;
27796;SDS011;15177;50.844;4.412;2023-05-07T13:10:56;8.43;;;4.10;;
27796;SDS011;15177;50.844;4.412;2023-05-07T13:13:32;5.95;;;4.45;;
27796;SDS011;15177;50.844;4.412;2023-05-07T13:15:59;5.68;;;4.35;;
27796;SDS011;15177;50.844;4.412;2023-05-07T13:18:26;5.50;;;4.15;;
27796;SDS011;15177;50.844;4.412;2023-05-07T13:20:52;5.60;;;4.75;;
27796;SDS011;15177;50.844;4.412;2023-05-07T13:23:18;5.63;;;4.43;;
27796;SDS011;15177;50.844;4.412;2023-05-07T13:25:44;6.47;;;5.13;;
27796;SDS011;15177;50.844;4.412;2023-05-07T13:28:10;6.40;;;4.63;;
27796;SDS011;15177;50.844;4.412;2023-05-07T13:30:35;7.20;;;5.00;;
27796;SDS011;15177;50.844;4.412;2023-05-07T13:33:03;5.47;;;4.63;;
27796;SDS011;15177;50.844;4.412;2023-05-07T13:35:28;7.60;;;5.47;;
27796;SDS011;15177;50.844;4.412;2023-05-07T13:37:54;10.43;;;6.15;;
27796;SDS011;15177;50.844;4.412;2023-05-07T13:40:22;8.23;;;6.15;;
27796;SDS011;15177;50.844;4.412;2023-05-07T13:42:48;7.57;;;6.32;;
27796;SDS011;15177;50.844;4.412;2023-05-07T13:45:14;6.97;;;6.28;;
27796;SDS011;15177;50.844;4.412;2023-05-07T13:47:41;8.40;;;6.63;;
27796;SDS011;15177;50.844;4.412;2023-05-07T13:50:07;9.25;;;7.47;;
27796;SDS011;15177;50.844;4.412;2023-05-07T13:52:34;11.98;;;8.02;;
27796;SDS011;15177;50.844;4.412;2023-05-07T13:54:59;10.20;;;7.30;;
27796;SDS011;15177;50.844;4.412;2023-05-07T13:57:26;11.93;;;6.93;;
27796;SDS011;15177;50.844;4.412;2023-05-07T13:59:52;11.00;;;8.13;;
27796;SDS011;15177;50.844;4.412;2023-05-07T14:02:18;9.68;;;8.35;;
27796;SDS011;15177;50.844;4.412;2023-05-07T14:04:43;11.85;;;8.63;;
27796;SDS011;15177;50.844;4.412;2023-05-07T14:07:10;12.55;;;9.23;;
27796;SDS011;15177;50.844;4.412;2023-05-07T14:09:36;12.27;;;8.25;;
27796;SDS011;15177;50.844;4.412;2023-05-07T14:12:01;11.15;;;9.00;;
27796;SDS011;15177;50.844;4.412;2023-05-07T14:14:28;11.82;;;8.68;;
27796;SDS011;15177;50.844;4.412;2023-05-07T14:16:54;13.07;;;9.50;;
27796;SDS011;15177;50.844;4.412;2023-05-07T14:19:20;10.25;;;8.10;;
27796;SDS011;15177;50.844;4.412;2023-05-07T14:21:47;12.23;;;9.27;;
27796;SDS011;15177;50.844;4.412;2023-05-07T14:24:13;12.63;;;9.30;;
27796;SDS011;15177;50.844;4.412;2023-05-07T14:26:39;11.27;;;8.98;;
27796;SDS011;15177;50.844;4.412;2023-05-07T14:29:04;10.43;;;8.45;;
27796;SDS011;15177;50.844;4.412;2023-05-07T14:31:30;10.40;;;9.32;;
27796;SDS011;15177;50.844;4.412;2023-05-07T14:33:56;13.02;;;10.05;;
27796;SDS011;15177;50.844;4.412;2023-05-07T14:36:23;11.57;;;9.68;;
27796;SDS011;15177;50.844;4.412;2023-05-07T14:38:51;11.30;;;9.65;;
27796;SDS011;15177;50.844;4.412;2023-05-07T14:41:18;13.55;;;11.18;;
27796;SDS011;15177;50.844;4.412;2023-05-07T14:43:45;12.50;;;9.68;;
27796;SDS011;15177;50.844;4.412;2023-05-07T14:46:15;11.35;;;8.77;;
27796;SDS011;15177;50.844;4.412;2023-05-07T14:48:42;10.30;;;8.65;;
27796;SDS011;15177;50.844;4.412;2023-05-07T14:51:11;10.77;;;7.85;;
27796;SDS011;15177;50.844;4.412;2023-05-07T14:53:37;9.60;;;8.43;;
27796;SDS011;15177;50.844;4.412;2023-05-07T14:56:03;13.35;;;8.50;;
27796;SDS011;15177;50.844;4.412;2023-05-07T14:58:31;11.13;;;9.20;;